Terminal Aerodrome Forecast
Issued by NWS Wilmington, OH

Current Version | Previous Version | Text Only | Print | Product List | Glossary Off
Versions: 1 2 3 4 5 6 7 8 9 10 11 12 13 14 15 16 17 18 19 20

000
FTUS41 KILN 271500 AAA
TAFCVG
TAF AMD
KCVG 271503Z 2715/2818 34004KT P6SM SCT150
     FM271700 34007KT P6SM BKN050
     FM271900 34007KT P6SM VCTS BKN050CB
     FM280000 02006KT P6SM BKN100
     FM280800 05005KT 5SM BR SCT050 BKN200
     FM281300 07007KT P6SM BKN250=

USA.gov is the U.S. government's official web portal to all federal, state and local government web resources and services.